sensor_id;sensor_type;location;lat;lon;timestamp;P1;durP1;ratioP1;P2;durP2;ratioP2
80297;SDS011;69599;52.622;9.230;2023-04-25T00:01:44;8.32;;;4.10;;
80297;SDS011;69599;52.622;9.230;2023-04-25T00:04:10;10.35;;;3.90;;
80297;SDS011;69599;52.622;9.230;2023-04-25T00:06:36;10.65;;;4.25;;
80297;SDS011;69599;52.622;9.230;2023-04-25T00:09:02;12.30;;;4.47;;
80297;SDS011;69599;52.622;9.230;2023-04-25T00:11:34;11.15;;;3.85;;
80297;SDS011;69599;52.622;9.230;2023-04-25T00:13:59;10.35;;;3.97;;
80297;SDS011;69599;52.622;9.230;2023-04-25T00:16:27;11.27;;;4.13;;
80297;SDS011;69599;52.622;9.230;2023-04-25T00:18:54;11.30;;;4.97;;
80297;SDS011;69599;52.622;9.230;2023-04-25T00:21:19;14.35;;;4.32;;
80297;SDS011;69599;52.622;9.230;2023-04-25T00:23:45;13.82;;;4.45;;
80297;SDS011;69599;52.622;9.230;2023-04-25T00:26:11;11.65;;;4.20;;
80297;SDS011;69599;52.622;9.230;2023-04-25T00:28:37;13.23;;;5.18;;
80297;SDS011;69599;52.622;9.230;2023-04-25T00:31:02;8.15;;;4.38;;
80297;SDS011;69599;52.622;9.230;2023-04-25T00:33:28;12.65;;;4.72;;
80297;SDS011;69599;52.622;9.230;2023-04-25T00:35:55;16.77;;;5.47;;
80297;SDS011;69599;52.622;9.230;2023-04-25T00:38:20;17.48;;;4.63;;
80297;SDS011;69599;52.622;9.230;2023-04-25T00:40:46;11.85;;;4.30;;
80297;SDS011;69599;52.622;9.230;2023-04-25T00:43:11;11.07;;;4.40;;
80297;SDS011;69599;52.622;9.230;2023-04-25T00:45:37;12.13;;;4.28;;
80297;SDS011;69599;52.622;9.230;2023-04-25T00:48:04;16.63;;;7.35;;
80297;SDS011;69599;52.622;9.230;2023-04-25T00:50:29;17.13;;;4.88;;
80297;SDS011;69599;52.622;9.230;2023-04-25T00:52:55;11.85;;;4.55;;
80297;SDS011;69599;52.622;9.230;2023-04-25T00:55:21;13.07;;;5.50;;
80297;SDS011;69599;52.622;9.230;2023-04-25T00:57:46;12.35;;;4.60;;
80297;SDS011;69599;52.622;9.230;2023-04-25T01:00:12;17.55;;;5.93;;
80297;SDS011;69599;52.622;9.230;2023-04-25T01:02:39;16.45;;;4.97;;
80297;SDS011;69599;52.622;9.230;2023-04-25T01:05:06;10.80;;;4.90;;
80297;SDS011;69599;52.622;9.230;2023-04-25T01:07:32;14.30;;;5.50;;
80297;SDS011;69599;52.622;9.230;2023-04-25T01:09:57;10.88;;;4.93;;
80297;SDS011;69599;52.622;9.230;2023-04-25T01:12:23;14.05;;;5.97;;
80297;SDS011;69599;52.622;9.230;2023-04-25T01:14:48;10.98;;;4.90;;
80297;SDS011;69599;52.622;9.230;2023-04-25T01:17:14;14.40;;;5.13;;
80297;SDS011;69599;52.622;9.230;2023-04-25T01:19:40;13.32;;;4.70;;
80297;SDS011;69599;52.622;9.230;2023-04-25T01:22:05;9.98;;;3.78;;
80297;SDS011;69599;52.622;9.230;2023-04-25T01:24:31;10.32;;;3.35;;
80297;SDS011;69599;52.622;9.230;2023-04-25T01:26:57;11.32;;;3.92;;
80297;SDS011;69599;52.622;9.230;2023-04-25T01:29:23;11.63;;;3.33;;
80297;SDS011;69599;52.622;9.230;2023-04-25T01:31:49;12.40;;;3.65;;
80297;SDS011;69599;52.622;9.230;2023-04-25T01:34:16;11.23;;;2.60;;
80297;SDS011;69599;52.622;9.230;2023-04-25T01:36:41;11.43;;;2.90;;
80297;SDS011;69599;52.622;9.230;2023-04-25T01:39:07;10.00;;;2.58;;
80297;SDS011;69599;52.622;9.230;2023-04-25T01:41:33;12.00;;;3.05;;
80297;SDS011;69599;52.622;9.230;2023-04-25T01:43:59;14.95;;;3.30;;
80297;SDS011;69599;52.622;9.230;2023-04-25T01:46:26;10.10;;;2.33;;
80297;SDS011;69599;52.622;9.230;2023-04-25T01:48:51;8.95;;;2.38;;
80297;SDS011;69599;52.622;9.230;2023-04-25T01:51:17;9.70;;;2.75;;
80297;SDS011;69599;52.622;9.230;2023-04-25T01:53:43;10.35;;;2.45;;
80297;SDS011;69599;52.622;9.230;2023-04-25T01:56:08;10.20;;;2.42;;
80297;SDS011;69599;52.622;9.230;2023-04-25T01:58:33;10.55;;;2.60;;
80297;SDS011;69599;52.622;9.230;2023-04-25T02:00:59;10.32;;;2.63;;
80297;SDS011;69599;52.622;9.230;2023-04-25T02:03:25;14.07;;;3.45;;
80297;SDS011;69599;52.622;9.230;2023-04-25T02:05:50;11.18;;;2.63;;
80297;SDS011;69599;52.622;9.230;2023-04-25T02:08:16;8.90;;;3.75;;
80297;SDS011;69599;52.622;9.230;2023-04-25T02:10:42;11.98;;;2.95;;
80297;SDS011;69599;52.622;9.230;2023-04-25T02:13:07;10.38;;;3.45;;
80297;SDS011;69599;52.622;9.230;2023-04-25T02:15:33;7.10;;;2.97;;
80297;SDS011;69599;52.622;9.230;2023-04-25T02:17:58;11.27;;;2.30;;
80297;SDS011;69599;52.622;9.230;2023-04-25T02:20:25;9.23;;;2.83;;
80297;SDS011;69599;52.622;9.230;2023-04-25T02:22:50;11.65;;;2.42;;
80297;SDS011;69599;52.622;9.230;2023-04-25T02:25:17;11.07;;;2.83;;
80297;SDS011;69599;52.622;9.230;2023-04-25T02:27:42;12.93;;;2.90;;
80297;SDS011;69599;52.622;9.230;2023-04-25T02:30:08;11.40;;;2.92;;
80297;SDS011;69599;52.622;9.230;2023-04-25T02:32:34;6.07;;;2.38;;
80297;SDS011;69599;52.622;9.230;2023-04-25T02:35:00;13.90;;;2.80;;
80297;SDS011;69599;52.622;9.230;2023-04-25T02:37:29;12.40;;;2.60;;
80297;SDS011;69599;52.622;9.230;2023-04-25T02:39:55;10.82;;;3.65;;
80297;SDS011;69599;52.622;9.230;2023-04-25T02:42:20;11.48;;;2.67;;
80297;SDS011;69599;52.622;9.230;2023-04-25T02:44:46;8.50;;;2.80;;
80297;SDS011;69599;52.622;9.230;2023-04-25T02:47:11;10.57;;;2.03;;
80297;SDS011;69599;52.622;9.230;2023-04-25T02:49:37;11.95;;;3.00;;
80297;SDS011;69599;52.622;9.230;2023-04-25T02:52:02;11.32;;;2.83;;
80297;SDS011;69599;52.622;9.230;2023-04-25T02:54:27;13.90;;;3.47;;
80297;SDS011;69599;52.622;9.230;2023-04-25T02:56:53;10.18;;;2.30;;
80297;SDS011;69599;52.622;9.230;2023-04-25T02:59:18;11.05;;;2.47;;
80297;SDS011;69599;52.622;9.230;2023-04-25T03:01:43;10.63;;;2.78;;
80297;SDS011;69599;52.622;9.230;2023-04-25T03:04:10;9.95;;;2.38;;
80297;SDS011;69599;52.622;9.230;2023-04-25T03:06:35;11.80;;;2.53;;
80297;SDS011;69599;52.622;9.230;2023-04-25T03:09:01;12.43;;;2.85;;
80297;SDS011;69599;52.622;9.230;2023-04-25T03:11:26;11.68;;;2.63;;
80297;SDS011;69599;52.622;9.230;2023-04-25T03:13:52;11.32;;;2.70;;
80297;SDS011;69599;52.622;9.230;2023-04-25T03:16:17;15.32;;;3.13;;
80297;SDS011;69599;52.622;9.230;2023-04-25T03:18:42;14.00;;;3.35;;
80297;SDS011;69599;52.622;9.230;2023-04-25T03:21:08;15.15;;;3.05;;
80297;SDS011;69599;52.622;9.230;2023-04-25T03:23:33;11.32;;;2.42;;
80297;SDS011;69599;52.622;9.230;2023-04-25T03:25:59;9.43;;;3.33;;
80297;SDS011;69599;52.622;9.230;2023-04-25T03:28:24;13.10;;;3.08;;
80297;SDS011;69599;52.622;9.230;2023-04-25T03:30:50;17.13;;;3.58;;
80297;SDS011;69599;52.622;9.230;2023-04-25T03:33:15;13.23;;;3.22;;
80297;SDS011;69599;52.622;9.230;2023-04-25T03:35:41;12.27;;;3.08;;
80297;SDS011;69599;52.622;9.230;2023-04-25T03:38:07;10.25;;;3.10;;
80297;SDS011;69599;52.622;9.230;2023-04-25T03:40:33;17.23;;;2.88;;
80297;SDS011;69599;52.622;9.230;2023-04-25T03:42:58;13.05;;;3.20;;
80297;SDS011;69599;52.622;9.230;2023-04-25T03:45:24;14.38;;;2.92;;
80297;SDS011;69599;52.622;9.230;2023-04-25T03:47:49;14.10;;;3.58;;
80297;SDS011;69599;52.622;9.230;2023-04-25T03:50:15;16.70;;;3.70;;
80297;SDS011;69599;52.622;9.230;2023-04-25T03:52:40;14.57;;;3.40;;
80297;SDS011;69599;52.622;9.230;2023-04-25T03:55:06;11.43;;;2.83;;
80297;SDS011;69599;52.622;9.230;2023-04-25T03:57:32;20.00;;;3.25;;
80297;SDS011;69599;52.622;9.230;2023-04-25T03:59:57;11.82;;;2.85;;
80297;SDS011;69599;52.622;9.230;2023-04-25T04:02:22;11.18;;;3.00;;
80297;SDS011;69599;52.622;9.230;2023-04-25T04:04:48;12.93;;;3.40;;
80297;SDS011;69599;52.622;9.230;2023-04-25T04:07:13;13.48;;;3.13;;
80297;SDS011;69599;52.622;9.230;2023-04-25T04:09:39;12.65;;;3.40;;
80297;SDS011;69599;52.622;9.230;2023-04-25T04:12:04;12.85;;;2.83;;
80297;SDS011;69599;52.622;9.230;2023-04-25T04:14:30;12.25;;;3.22;;
80297;SDS011;69599;52.622;9.230;2023-04-25T04:16:55;9.50;;;2.83;;
80297;SDS011;69599;52.622;9.230;2023-04-25T04:19:21;19.33;;;3.38;;
80297;SDS011;69599;52.622;9.230;2023-04-25T04:21:46;9.32;;;3.03;;
80297;SDS011;69599;52.622;9.230;2023-04-25T04:24:12;16.58;;;3.10;;
80297;SDS011;69599;52.622;9.230;2023-04-25T04:26:37;13.98;;;3.00;;
80297;SDS011;69599;52.622;9.230;2023-04-25T04:29:03;14.38;;;3.53;;
80297;SDS011;69599;52.622;9.230;2023-04-25T04:31:29;10.10;;;2.80;;
80297;SDS011;69599;52.622;9.230;2023-04-25T04:33:55;11.15;;;2.42;;
80297;SDS011;69599;52.622;9.230;2023-04-25T04:36:20;14.07;;;3.53;;
80297;SDS011;69599;52.622;9.230;2023-04-25T04:38:47;15.55;;;3.33;;
80297;SDS011;69599;52.622;9.230;2023-04-25T04:41:12;13.23;;;4.20;;
80297;SDS011;69599;52.622;9.230;2023-04-25T04:43:38;11.90;;;3.28;;
80297;SDS011;69599;52.622;9.230;2023-04-25T04:46:04;16.15;;;3.50;;
80297;SDS011;69599;52.622;9.230;2023-04-25T04:48:31;8.73;;;2.97;;
80297;SDS011;69599;52.622;9.230;2023-04-25T04:50:59;17.63;;;3.20;;
80297;SDS011;69599;52.622;9.230;2023-04-25T04:53:25;12.93;;;3.05;;
80297;SDS011;69599;52.622;9.230;2023-04-25T04:55:50;14.45;;;3.95;;
80297;SDS011;69599;52.622;9.230;2023-04-25T04:58:16;13.52;;;3.05;;
80297;SDS011;69599;52.622;9.230;2023-04-25T05:00:41;10.43;;;3.08;;
80297;SDS011;69599;52.622;9.230;2023-04-25T05:03:07;8.63;;;3.05;;
80297;SDS011;69599;52.622;9.230;2023-04-25T05:05:32;10.90;;;2.80;;
80297;SDS011;69599;52.622;9.230;2023-04-25T05:07:58;10.30;;;2.53;;
80297;SDS011;69599;52.622;9.230;2023-04-25T05:10:23;13.73;;;3.35;;
80297;SDS011;69599;52.622;9.230;2023-04-25T05:12:48;11.55;;;3.13;;
80297;SDS011;69599;52.622;9.230;2023-04-25T05:15:14;11.55;;;3.33;;
80297;SDS011;69599;52.622;9.230;2023-04-25T05:17:39;12.52;;;2.92;;
80297;SDS011;69599;52.622;9.230;2023-04-25T05:20:05;14.73;;;3.13;;
80297;SDS011;69599;52.622;9.230;2023-04-25T05:22:32;11.23;;;2.97;;
80297;SDS011;69599;52.622;9.230;2023-04-25T05:24:58;12.98;;;2.88;;
80297;SDS011;69599;52.622;9.230;2023-04-25T05:27:23;13.88;;;2.65;;
80297;SDS011;69599;52.622;9.230;2023-04-25T05:29:49;12.60;;;2.78;;
80297;SDS011;69599;52.622;9.230;2023-04-25T05:32:14;10.10;;;2.47;;
80297;SDS011;69599;52.622;9.230;2023-04-25T05:34:39;9.38;;;2.33;;
80297;SDS011;69599;52.622;9.230;2023-04-25T05:37:05;14.73;;;3.15;;
80297;SDS011;69599;52.622;9.230;2023-04-25T05:39:30;12.13;;;3.15;;
80297;SDS011;69599;52.622;9.230;2023-04-25T05:41:55;17.83;;;3.33;;
80297;SDS011;69599;52.622;9.230;2023-04-25T05:44:21;10.60;;;2.90;;
80297;SDS011;69599;52.622;9.230;2023-04-25T05:46:46;9.98;;;2.90;;
80297;SDS011;69599;52.622;9.230;2023-04-25T05:49:12;9.25;;;2.10;;
80297;SDS011;69599;52.622;9.230;2023-04-25T05:51:37;11.88;;;2.95;;
80297;SDS011;69599;52.622;9.230;2023-04-25T05:54:03;9.68;;;2.17;;
80297;SDS011;69599;52.622;9.230;2023-04-25T05:56:28;11.60;;;2.78;;
80297;SDS011;69599;52.622;9.230;2023-04-25T05:58:54;13.73;;;2.58;;
80297;SDS011;69599;52.622;9.230;2023-04-25T06:01:20;8.60;;;2.05;;
80297;SDS011;69599;52.622;9.230;2023-04-25T06:03:46;8.38;;;2.30;;
80297;SDS011;69599;52.622;9.230;2023-04-25T06:06:12;12.13;;;2.50;;
80297;SDS011;69599;52.622;9.230;2023-04-25T06:08:37;14.18;;;2.28;;
80297;SDS011;69599;52.622;9.230;2023-04-25T06:11:03;9.25;;;2.63;;
80297;SDS011;69599;52.622;9.230;2023-04-25T06:13:29;17.50;;;3.58;;
80297;SDS011;69599;52.622;9.230;2023-04-25T06:15:54;9.55;;;2.35;;
80297;SDS011;69599;52.622;9.230;2023-04-25T06:18:20;7.88;;;1.80;;
80297;SDS011;69599;52.622;9.230;2023-04-25T06:20:45;5.72;;;2.45;;
80297;SDS011;69599;52.622;9.230;2023-04-25T06:23:11;10.02;;;1.95;;
80297;SDS011;69599;52.622;9.230;2023-04-25T06:25:36;12.52;;;2.83;;
80297;SDS011;69599;52.622;9.230;2023-04-25T06:28:02;8.32;;;2.22;;
80297;SDS011;69599;52.622;9.230;2023-04-25T06:30:27;10.95;;;2.85;;
80297;SDS011;69599;52.622;9.230;2023-04-25T06:32:53;8.98;;;2.45;;
80297;SDS011;69599;52.622;9.230;2023-04-25T06:35:18;11.23;;;2.45;;
80297;SDS011;69599;52.622;9.230;2023-04-25T06:37:44;12.70;;;2.92;;
80297;SDS011;69599;52.622;9.230;2023-04-25T06:40:10;8.25;;;2.22;;
80297;SDS011;69599;52.622;9.230;2023-04-25T06:42:36;12.30;;;2.47;;
80297;SDS011;69599;52.622;9.230;2023-04-25T06:45:01;12.32;;;2.60;;
80297;SDS011;69599;52.622;9.230;2023-04-25T06:47:27;12.30;;;2.28;;
80297;SDS011;69599;52.622;9.230;2023-04-25T06:49:52;9.60;;;2.33;;
80297;SDS011;69599;52.622;9.230;2023-04-25T06:52:18;8.52;;;2.05;;
80297;SDS011;69599;52.622;9.230;2023-04-25T06:54:43;5.10;;;1.52;;
80297;SDS011;69599;52.622;9.230;2023-04-25T06:57:09;7.28;;;1.90;;
80297;SDS011;69599;52.622;9.230;2023-04-25T06:59:34;5.80;;;1.98;;
80297;SDS011;69599;52.622;9.230;2023-04-25T07:02:00;6.82;;;1.70;;
80297;SDS011;69599;52.622;9.230;2023-04-25T07:04:25;7.72;;;2.10;;
80297;SDS011;69599;52.622;9.230;2023-04-25T07:06:51;8.70;;;2.00;;
80297;SDS011;69599;52.622;9.230;2023-04-25T07:09:16;10.30;;;2.20;;
80297;SDS011;69599;52.622;9.230;2023-04-25T07:11:42;7.93;;;2.47;;
80297;SDS011;69599;52.622;9.230;2023-04-25T07:14:07;9.13;;;1.58;;
80297;SDS011;69599;52.622;9.230;2023-04-25T07:16:32;4.40;;;1.58;;
80297;SDS011;69599;52.622;9.230;2023-04-25T07:18:58;7.05;;;1.88;;
80297;SDS011;69599;52.622;9.230;2023-04-25T07:21:24;5.40;;;1.50;;
80297;SDS011;69599;52.622;9.230;2023-04-25T07:23:50;6.45;;;1.67;;
80297;SDS011;69599;52.622;9.230;2023-04-25T07:26:16;9.63;;;1.80;;
80297;SDS011;69599;52.622;9.230;2023-04-25T07:28:42;6.93;;;1.38;;
80297;SDS011;69599;52.622;9.230;2023-04-25T07:31:08;8.63;;;2.03;;
80297;SDS011;69599;52.622;9.230;2023-04-25T07:33:34;9.02;;;1.95;;
80297;SDS011;69599;52.622;9.230;2023-04-25T07:35:59;12.00;;;2.58;;
80297;SDS011;69599;52.622;9.230;2023-04-25T07:38:25;9.25;;;2.00;;
80297;SDS011;69599;52.622;9.230;2023-04-25T07:40:51;10.18;;;2.03;;
80297;SDS011;69599;52.622;9.230;2023-04-25T07:43:16;9.50;;;2.03;;
80297;SDS011;69599;52.622;9.230;2023-04-25T07:45:45;6.85;;;1.80;;
80297;SDS011;69599;52.622;9.230;2023-04-25T07:48:11;9.68;;;1.55;;
80297;SDS011;69599;52.622;9.230;2023-04-25T07:50:38;8.93;;;1.80;;
80297;SDS011;69599;52.622;9.230;2023-04-25T07:53:03;6.53;;;1.17;;
80297;SDS011;69599;52.622;9.230;2023-04-25T07:55:29;6.00;;;1.70;;
80297;SDS011;69599;52.622;9.230;2023-04-25T07:57:54;8.65;;;1.60;;
80297;SDS011;69599;52.622;9.230;2023-04-25T08:00:20;8.18;;;1.52;;
80297;SDS011;69599;52.622;9.230;2023-04-25T08:02:45;6.20;;;1.48;;
80297;SDS011;69599;52.622;9.230;2023-04-25T08:05:11;7.78;;;1.27;;
80297;SDS011;69599;52.622;9.230;2023-04-25T08:07:40;8.02;;;1.88;;
80297;SDS011;69599;52.622;9.230;2023-04-25T08:10:06;8.82;;;1.33;;
80297;SDS011;69599;52.622;9.230;2023-04-25T08:12:32;9.95;;;1.52;;
80297;SDS011;69599;52.622;9.230;2023-04-25T08:14:58;6.60;;;1.35;;
80297;SDS011;69599;52.622;9.230;2023-04-25T08:17:23;7.60;;;1.60;;
80297;SDS011;69599;52.622;9.230;2023-04-25T08:19:49;7.47;;;1.33;;
80297;SDS011;69599;52.622;9.230;2023-04-25T08:22:14;6.05;;;1.50;;
80297;SDS011;69599;52.622;9.230;2023-04-25T08:24:40;5.78;;;1.45;;
80297;SDS011;69599;52.622;9.230;2023-04-25T08:27:06;6.07;;;1.85;;
80297;SDS011;69599;52.622;9.230;2023-04-25T08:29:32;7.15;;;1.40;;
80297;SDS011;69599;52.622;9.230;2023-04-25T08:31:58;6.22;;;1.60;;
80297;SDS011;69599;52.622;9.230;2023-04-25T08:34:24;7.45;;;1.58;;
80297;SDS011;69599;52.622;9.230;2023-04-25T08:36:50;5.80;;;1.65;;
80297;SDS011;69599;52.622;9.230;2023-04-25T08:39:15;9.85;;;1.75;;
80297;SDS011;69599;52.622;9.230;2023-04-25T08:41:41;3.50;;;1.30;;
80297;SDS011;69599;52.622;9.230;2023-04-25T08:44:06;8.75;;;1.50;;
80297;SDS011;69599;52.622;9.230;2023-04-25T08:46:35;4.43;;;1.20;;
80297;SDS011;69599;52.622;9.230;2023-04-25T08:49:03;5.85;;;0.90;;
80297;SDS011;69599;52.622;9.230;2023-04-25T08:51:30;6.38;;;1.35;;
80297;SDS011;69599;52.622;9.230;2023-04-25T08:53:57;10.05;;;1.77;;
80297;SDS011;69599;52.622;9.230;2023-04-25T08:56:36;3.80;;;1.00;;
80297;SDS011;69599;52.622;9.230;2023-04-25T08:59:03;6.75;;;1.20;;
80297;SDS011;69599;52.622;9.230;2023-04-25T09:01:28;4.28;;;1.00;;
80297;SDS011;69599;52.622;9.230;2023-04-25T09:03:54;5.55;;;1.10;;
80297;SDS011;69599;52.622;9.230;2023-04-25T09:06:19;4.32;;;1.15;;
80297;SDS011;69599;52.622;9.230;2023-04-25T09:08:45;6.22;;;1.20;;
80297;SDS011;69599;52.622;9.230;2023-04-25T09:11:11;6.93;;;1.35;;
80297;SDS011;69599;52.622;9.230;2023-04-25T09:13:38;4.47;;;1.10;;
80297;SDS011;69599;52.622;9.230;2023-04-25T09:16:03;4.22;;;0.93;;
80297;SDS011;69599;52.622;9.230;2023-04-25T09:18:30;5.18;;;1.13;;
80297;SDS011;69599;52.622;9.230;2023-04-25T09:20:56;5.57;;;1.70;;
80297;SDS011;69599;52.622;9.230;2023-04-25T09:23:23;4.22;;;0.90;;
80297;SDS011;69599;52.622;9.230;2023-04-25T09:25:50;4.18;;;1.02;;
80297;SDS011;69599;52.622;9.230;2023-04-25T09:28:16;5.95;;;1.20;;
80297;SDS011;69599;52.622;9.230;2023-04-25T09:30:48;6.50;;;1.25;;
80297;SDS011;69599;52.622;9.230;2023-04-25T09:33:14;4.20;;;1.10;;
80297;SDS011;69599;52.622;9.230;2023-04-25T09:35:40;4.25;;;1.10;;
80297;SDS011;69599;52.622;9.230;2023-04-25T09:38:11;3.78;;;1.45;;
80297;SDS011;69599;52.622;9.230;2023-04-25T09:40:41;6.15;;;1.05;;
80297;SDS011;69599;52.622;9.230;2023-04-25T09:43:25;8.48;;;1.90;;
80297;SDS011;69599;52.622;9.230;2023-04-25T09:45:52;7.43;;;1.58;;
80297;SDS011;69599;52.622;9.230;2023-04-25T09:48:22;6.40;;;1.60;;
80297;SDS011;69599;52.622;9.230;2023-04-25T09:53:29;5.25;;;1.98;;
80297;SDS011;69599;52.622;9.230;2023-04-25T09:55:55;3.42;;;0.93;;
80297;SDS011;69599;52.622;9.230;2023-04-25T09:58:21;8.50;;;0.95;;
80297;SDS011;69599;52.622;9.230;2023-04-25T10:00:49;2.85;;;0.60;;
80297;SDS011;69599;52.622;9.230;2023-04-25T10:03:15;3.10;;;1.02;;
80297;SDS011;69599;52.622;9.230;2023-04-25T10:05:42;3.05;;;0.90;;
80297;SDS011;69599;52.622;9.230;2023-04-25T10:08:08;7.40;;;1.52;;
80297;SDS011;69599;52.622;9.230;2023-04-25T10:10:34;4.72;;;1.00;;
80297;SDS011;69599;52.622;9.230;2023-04-25T10:13:02;5.53;;;1.30;;
80297;SDS011;69599;52.622;9.230;2023-04-25T10:15:29;5.95;;;1.23;;
80297;SDS011;69599;52.622;9.230;2023-04-25T10:17:55;5.90;;;1.25;;
80297;SDS011;69599;52.622;9.230;2023-04-25T10:20:22;5.53;;;0.90;;
80297;SDS011;69599;52.622;9.230;2023-04-25T10:22:47;4.82;;;2.00;;
80297;SDS011;69599;52.622;9.230;2023-04-25T10:25:13;5.85;;;1.15;;
80297;SDS011;69599;52.622;9.230;2023-04-25T10:27:39;3.70;;;0.90;;
80297;SDS011;69599;52.622;9.230;2023-04-25T10:30:06;2.58;;;0.93;;
80297;SDS011;69599;52.622;9.230;2023-04-25T10:32:36;6.18;;;1.20;;
80297;SDS011;69599;52.622;9.230;2023-04-25T10:35:11;2.92;;;1.13;;
80297;SDS011;69599;52.622;9.230;2023-04-25T10:40:23;6.82;;;1.40;;
80297;SDS011;69599;52.622;9.230;2023-04-25T10:42:48;2.67;;;1.27;;
80297;SDS011;69599;52.622;9.230;2023-04-25T10:45:14;3.20;;;0.85;;
80297;SDS011;69599;52.622;9.230;2023-04-25T10:47:45;3.35;;;1.00;;
80297;SDS011;69599;52.622;9.230;2023-04-25T10:50:11;4.55;;;0.80;;
80297;SDS011;69599;52.622;9.230;2023-04-25T10:52:40;1.55;;;0.70;;
80297;SDS011;69599;52.622;9.230;2023-04-25T10:55:06;1.85;;;0.70;;
80297;SDS011;69599;52.622;9.230;2023-04-25T10:57:39;2.78;;;0.60;;
80297;SDS011;69599;52.622;9.230;2023-04-25T11:00:15;2.83;;;0.73;;
80297;SDS011;69599;52.622;9.230;2023-04-25T11:02:46;4.47;;;1.08;;
80297;SDS011;69599;52.622;9.230;2023-04-25T11:05:23;2.70;;;0.98;;
80297;SDS011;69599;52.622;9.230;2023-04-25T11:08:01;3.15;;;1.00;;
80297;SDS011;69599;52.622;9.230;2023-04-25T11:10:29;4.43;;;0.90;;
80297;SDS011;69599;52.622;9.230;2023-04-25T11:12:56;4.38;;;1.00;;
80297;SDS011;69599;52.622;9.230;2023-04-25T11:15:22;3.28;;;1.27;;
80297;SDS011;69599;52.622;9.230;2023-04-25T11:17:47;3.35;;;0.50;;
80297;SDS011;69599;52.622;9.230;2023-04-25T11:20:13;2.22;;;0.90;;
80297;SDS011;69599;52.622;9.230;2023-04-25T11:22:39;4.80;;;0.98;;
80297;SDS011;69599;52.622;9.230;2023-04-25T11:25:08;3.92;;;0.85;;
80297;SDS011;69599;52.622;9.230;2023-04-25T11:27:37;5.10;;;1.20;;
80297;SDS011;69599;52.622;9.230;2023-04-25T11:30:13;3.55;;;0.80;;
80297;SDS011;69599;52.622;9.230;2023-04-25T11:32:40;8.57;;;1.50;;
80297;SDS011;69599;52.622;9.230;2023-04-25T11:35:07;4.45;;;0.77;;
80297;SDS011;69599;52.622;9.230;2023-04-25T11:37:32;3.55;;;0.85;;
80297;SDS011;69599;52.622;9.230;2023-04-25T11:39:59;2.67;;;0.75;;
80297;SDS011;69599;52.622;9.230;2023-04-25T11:42:25;7.47;;;0.90;;
80297;SDS011;69599;52.622;9.230;2023-04-25T11:44:50;5.93;;;1.05;;
80297;SDS011;69599;52.622;9.230;2023-04-25T11:47:16;2.13;;;0.65;;
80297;SDS011;69599;52.622;9.230;2023-04-25T11:49:41;2.72;;;0.80;;
80297;SDS011;69599;52.622;9.230;2023-04-25T11:52:07;1.63;;;0.60;;
80297;SDS011;69599;52.622;9.230;2023-04-25T11:54:35;2.88;;;0.57;;
80297;SDS011;69599;52.622;9.230;2023-04-25T11:57:01;1.13;;;0.40;;
80297;SDS011;69599;52.622;9.230;2023-04-25T11:59:26;0.88;;;0.43;;
80297;SDS011;69599;52.622;9.230;2023-04-25T12:01:52;1.08;;;0.32;;
80297;SDS011;69599;52.622;9.230;2023-04-25T12:04:22;1.35;;;0.38;;
80297;SDS011;69599;52.622;9.230;2023-04-25T12:06:49;2.47;;;0.77;;
80297;SDS011;69599;52.622;9.230;2023-04-25T12:09:16;2.70;;;0.50;;
80297;SDS011;69599;52.622;9.230;2023-04-25T12:11:52;3.05;;;0.80;;
80297;SDS011;69599;52.622;9.230;2023-04-25T12:14:25;3.17;;;0.80;;
80297;SDS011;69599;52.622;9.230;2023-04-25T12:17:01;3.30;;;0.77;;
80297;SDS011;69599;52.622;9.230;2023-04-25T12:19:34;2.50;;;0.50;;
80297;SDS011;69599;52.622;9.230;2023-04-25T12:22:01;1.35;;;0.40;;
80297;SDS011;69599;52.622;9.230;2023-04-25T12:24:32;2.38;;;0.40;;
80297;SDS011;69599;52.622;9.230;2023-04-25T12:29:26;3.25;;;0.73;;
80297;SDS011;69599;52.622;9.230;2023-04-25T12:31:53;3.58;;;0.75;;
80297;SDS011;69599;52.622;9.230;2023-04-25T12:34:19;4.22;;;0.90;;
80297;SDS011;69599;52.622;9.230;2023-04-25T12:36:46;7.03;;;0.80;;
80297;SDS011;69599;52.622;9.230;2023-04-25T12:39:18;2.70;;;0.60;;
80297;SDS011;69599;52.622;9.230;2023-04-25T12:41:45;1.83;;;0.80;;
80297;SDS011;69599;52.622;9.230;2023-04-25T12:44:11;3.60;;;1.23;;
80297;SDS011;69599;52.622;9.230;2023-04-25T12:46:37;2.97;;;0.60;;
80297;SDS011;69599;52.622;9.230;2023-04-25T12:49:03;6.53;;;1.67;;
80297;SDS011;69599;52.622;9.230;2023-04-25T12:51:29;3.85;;;1.10;;
80297;SDS011;69599;52.622;9.230;2023-04-25T12:53:54;4.82;;;0.93;;
80297;SDS011;69599;52.622;9.230;2023-04-25T12:56:20;4.25;;;1.27;;
80297;SDS011;69599;52.622;9.230;2023-04-25T12:58:45;5.47;;;1.42;;
80297;SDS011;69599;52.622;9.230;2023-04-25T13:01:11;7.20;;;0.70;;
80297;SDS011;69599;52.622;9.230;2023-04-25T13:03:38;4.28;;;0.75;;
80297;SDS011;69599;52.622;9.230;2023-04-25T13:06:04;2.47;;;0.75;;
80297;SDS011;69599;52.622;9.230;2023-04-25T13:08:30;7.53;;;1.27;;
80297;SDS011;69599;52.622;9.230;2023-04-25T13:10:55;4.60;;;1.05;;
80297;SDS011;69599;52.622;9.230;2023-04-25T13:13:21;2.50;;;1.13;;
80297;SDS011;69599;52.622;9.230;2023-04-25T13:15:46;2.75;;;0.70;;
80297;SDS011;69599;52.622;9.230;2023-04-25T13:18:12;5.05;;;1.45;;
80297;SDS011;69599;52.622;9.230;2023-04-25T13:20:38;5.63;;;1.25;;
80297;SDS011;69599;52.622;9.230;2023-04-25T13:23:03;3.03;;;1.08;;
80297;SDS011;69599;52.622;9.230;2023-04-25T13:25:28;2.97;;;0.70;;
80297;SDS011;69599;52.622;9.230;2023-04-25T13:27:54;4.40;;;1.10;;
80297;SDS011;69599;52.622;9.230;2023-04-25T13:30:20;3.28;;;0.82;;
80297;SDS011;69599;52.622;9.230;2023-04-25T13:32:46;3.85;;;0.80;;
80297;SDS011;69599;52.622;9.230;2023-04-25T13:35:12;1.65;;;0.70;;
80297;SDS011;69599;52.622;9.230;2023-04-25T13:37:39;2.35;;;0.80;;
80297;SDS011;69599;52.622;9.230;2023-04-25T13:40:08;1.45;;;0.75;;
80297;SDS011;69599;52.622;9.230;2023-04-25T13:42:37;2.80;;;0.60;;
80297;SDS011;69599;52.622;9.230;2023-04-25T13:45:03;1.67;;;0.60;;
80297;SDS011;69599;52.622;9.230;2023-04-25T13:47:29;2.63;;;0.80;;
80297;SDS011;69599;52.622;9.230;2023-04-25T13:49:55;1.92;;;0.63;;
80297;SDS011;69599;52.622;9.230;2023-04-25T13:52:21;4.85;;;1.13;;
80297;SDS011;69599;52.622;9.230;2023-04-25T13:54:49;4.78;;;0.80;;
80297;SDS011;69599;52.622;9.230;2023-04-25T13:57:14;2.65;;;0.93;;
80297;SDS011;69599;52.622;9.230;2023-04-25T13:59:40;3.90;;;0.60;;
80297;SDS011;69599;52.622;9.230;2023-04-25T14:02:06;3.33;;;0.60;;
80297;SDS011;69599;52.622;9.230;2023-04-25T14:04:32;1.27;;;0.75;;
80297;SDS011;69599;52.622;9.230;2023-04-25T14:06:57;3.63;;;0.77;;
80297;SDS011;69599;52.622;9.230;2023-04-25T14:09:23;2.83;;;0.98;;
80297;SDS011;69599;52.622;9.230;2023-04-25T14:11:51;6.15;;;0.95;;
80297;SDS011;69599;52.622;9.230;2023-04-25T14:14:17;3.70;;;1.02;;
80297;SDS011;69599;52.622;9.230;2023-04-25T14:16:43;4.18;;;1.10;;
80297;SDS011;69599;52.622;9.230;2023-04-25T14:19:09;6.13;;;1.23;;
80297;SDS011;69599;52.622;9.230;2023-04-25T14:21:34;3.50;;;1.10;;
80297;SDS011;69599;52.622;9.230;2023-04-25T14:24:00;2.35;;;1.10;;
80297;SDS011;69599;52.622;9.230;2023-04-25T14:26:25;2.83;;;1.23;;
80297;SDS011;69599;52.622;9.230;2023-04-25T14:28:51;5.97;;;1.65;;
80297;SDS011;69599;52.622;9.230;2023-04-25T14:31:17;5.85;;;1.58;;
80297;SDS011;69599;52.622;9.230;2023-04-25T14:33:42;6.30;;;1.13;;
80297;SDS011;69599;52.622;9.230;2023-04-25T14:36:08;3.83;;;1.35;;
80297;SDS011;69599;52.622;9.230;2023-04-25T14:38:34;2.58;;;0.93;;
80297;SDS011;69599;52.622;9.230;2023-04-25T14:40:59;2.45;;;1.15;;
80297;SDS011;69599;52.622;9.230;2023-04-25T14:43:25;5.22;;;1.20;;
80297;SDS011;69599;52.622;9.230;2023-04-25T14:45:50;3.03;;;0.95;;